sensor_id;sensor_type;location;lat;lon;timestamp;P1;durP1;ratioP1;P2;durP2;ratioP2
13279;SDS011;6708;49.814;8.652;2023-07-20T00:00:00;1.53;;;1.20;;
13279;SDS011;6708;49.814;8.652;2023-07-20T00:02:38;1.13;;;1.13;;
13279;SDS011;6708;49.814;8.652;2023-07-20T00:05:09;1.27;;;1.17;;
13279;SDS011;6708;49.814;8.652;2023-07-20T00:07:37;1.10;;;1.10;;
13279;SDS011;6708;49.814;8.652;2023-07-20T00:10:09;1.13;;;1.13;;
13279;SDS011;6708;49.814;8.652;2023-07-20T00:12:37;1.50;;;1.40;;
13279;SDS011;6708;49.814;8.652;2023-07-20T00:15:06;1.47;;;1.37;;
13279;SDS011;6708;49.814;8.652;2023-07-20T00:17:34;1.40;;;1.30;;
13279;SDS011;6708;49.814;8.652;2023-07-20T00:20:06;1.60;;;1.37;;
13279;SDS011;6708;49.814;8.652;2023-07-20T00:22:38;1.60;;;1.50;;
13279;SDS011;6708;49.814;8.652;2023-07-20T00:25:09;3.10;;;1.60;;
13279;SDS011;6708;49.814;8.652;2023-07-20T00:27:37;1.40;;;1.30;;
13279;SDS011;6708;49.814;8.652;2023-07-20T00:30:06;1.80;;;1.67;;
13279;SDS011;6708;49.814;8.652;2023-07-20T00:32:39;2.37;;;1.87;;
13279;SDS011;6708;49.814;8.652;2023-07-20T00:35:10;2.50;;;1.47;;
13279;SDS011;6708;49.814;8.652;2023-07-20T00:37:39;1.60;;;1.50;;
13279;SDS011;6708;49.814;8.652;2023-07-20T00:40:07;1.87;;;1.77;;
13279;SDS011;6708;49.814;8.652;2023-07-20T00:42:36;1.67;;;1.50;;
13279;SDS011;6708;49.814;8.652;2023-07-20T00:45:06;1.50;;;1.40;;
13279;SDS011;6708;49.814;8.652;2023-07-20T00:47:35;1.40;;;1.30;;
13279;SDS011;6708;49.814;8.652;2023-07-20T00:50:05;3.13;;;1.67;;
13279;SDS011;6708;49.814;8.652;2023-07-20T00:52:36;1.70;;;1.60;;
13279;SDS011;6708;49.814;8.652;2023-07-20T00:55:06;3.43;;;1.30;;
13279;SDS011;6708;49.814;8.652;2023-07-20T00:57:35;1.50;;;1.23;;
13279;SDS011;6708;49.814;8.652;2023-07-20T01:00:06;1.43;;;1.33;;
13279;SDS011;6708;49.814;8.652;2023-07-20T01:02:35;1.27;;;1.17;;
13279;SDS011;6708;49.814;8.652;2023-07-20T01:05:04;1.77;;;1.20;;
13279;SDS011;6708;49.814;8.652;2023-07-20T01:07:38;1.00;;;1.00;;
13279;SDS011;6708;49.814;8.652;2023-07-20T01:10:09;1.33;;;1.23;;
13279;SDS011;6708;49.814;8.652;2023-07-20T01:12:40;2.23;;;1.23;;
13279;SDS011;6708;49.814;8.652;2023-07-20T01:15:10;2.20;;;1.37;;
13279;SDS011;6708;49.814;8.652;2023-07-20T01:17:39;1.30;;;1.30;;
13279;SDS011;6708;49.814;8.652;2023-07-20T01:20:08;3.67;;;1.63;;
13279;SDS011;6708;49.814;8.652;2023-07-20T01:22:45;2.57;;;1.23;;
13279;SDS011;6708;49.814;8.652;2023-07-20T01:25:34;1.20;;;1.20;;
13279;SDS011;6708;49.814;8.652;2023-07-20T01:28:26;1.50;;;1.40;;
13279;SDS011;6708;49.814;8.652;2023-07-20T01:31:18;1.60;;;1.50;;
13279;SDS011;6708;49.814;8.652;2023-07-20T01:33:50;1.20;;;1.20;;
13279;SDS011;6708;49.814;8.652;2023-07-20T01:36:19;1.57;;;1.47;;
13279;SDS011;6708;49.814;8.652;2023-07-20T01:38:47;2.10;;;1.27;;
13279;SDS011;6708;49.814;8.652;2023-07-20T01:41:16;1.70;;;1.60;;
13279;SDS011;6708;49.814;8.652;2023-07-20T01:43:45;2.30;;;1.43;;
13279;SDS011;6708;49.814;8.652;2023-07-20T01:46:14;1.53;;;1.43;;
13279;SDS011;6708;49.814;8.652;2023-07-20T01:48:45;1.80;;;1.70;;
13279;SDS011;6708;49.814;8.652;2023-07-20T01:51:15;1.23;;;1.13;;
13279;SDS011;6708;49.814;8.652;2023-07-20T01:53:44;1.90;;;1.43;;
13279;SDS011;6708;49.814;8.652;2023-07-20T01:56:13;2.20;;;1.30;;
13279;SDS011;6708;49.814;8.652;2023-07-20T01:58:42;1.53;;;1.43;;
13279;SDS011;6708;49.814;8.652;2023-07-20T02:01:10;1.17;;;1.17;;
13279;SDS011;6708;49.814;8.652;2023-07-20T02:03:41;1.67;;;1.57;;
13279;SDS011;6708;49.814;8.652;2023-07-20T02:06:09;2.50;;;1.50;;
13279;SDS011;6708;49.814;8.652;2023-07-20T02:08:38;1.63;;;1.43;;
13279;SDS011;6708;49.814;8.652;2023-07-20T02:11:06;1.47;;;1.40;;
13279;SDS011;6708;49.814;8.652;2023-07-20T02:13:35;3.10;;;1.60;;
13279;SDS011;6708;49.814;8.652;2023-07-20T02:16:03;1.10;;;1.10;;
13279;SDS011;6708;49.814;8.652;2023-07-20T02:18:33;1.97;;;1.50;;
13279;SDS011;6708;49.814;8.652;2023-07-20T02:21:04;1.97;;;1.70;;
13279;SDS011;6708;49.814;8.652;2023-07-20T02:23:33;3.10;;;1.50;;
13279;SDS011;6708;49.814;8.652;2023-07-20T02:26:01;2.80;;;1.40;;
13279;SDS011;6708;49.814;8.652;2023-07-20T02:28:29;1.63;;;1.40;;
13279;SDS011;6708;49.814;8.652;2023-07-20T02:30:58;3.43;;;1.50;;
13279;SDS011;6708;49.814;8.652;2023-07-20T02:33:26;1.80;;;1.70;;
13279;SDS011;6708;49.814;8.652;2023-07-20T02:35:54;1.53;;;1.43;;
13279;SDS011;6708;49.814;8.652;2023-07-20T02:38:25;1.40;;;1.30;;
13279;SDS011;6708;49.814;8.652;2023-07-20T02:40:54;1.57;;;1.43;;
13279;SDS011;6708;49.814;8.652;2023-07-20T02:43:22;2.70;;;1.90;;
13279;SDS011;6708;49.814;8.652;2023-07-20T02:45:51;2.50;;;1.67;;
13279;SDS011;6708;49.814;8.652;2023-07-20T02:48:19;1.60;;;1.50;;
13279;SDS011;6708;49.814;8.652;2023-07-20T02:50:47;1.70;;;1.33;;
13279;SDS011;6708;49.814;8.652;2023-07-20T02:53:16;1.93;;;1.60;;
13279;SDS011;6708;49.814;8.652;2023-07-20T02:55:47;2.13;;;1.77;;
13279;SDS011;6708;49.814;8.652;2023-07-20T02:58:15;4.13;;;1.30;;
13279;SDS011;6708;49.814;8.652;2023-07-20T03:00:43;2.50;;;1.60;;
13279;SDS011;6708;49.814;8.652;2023-07-20T03:03:12;1.10;;;1.10;;
13279;SDS011;6708;49.814;8.652;2023-07-20T03:05:40;1.60;;;1.50;;
13279;SDS011;6708;49.814;8.652;2023-07-20T03:08:09;1.63;;;1.47;;
13279;SDS011;6708;49.814;8.652;2023-07-20T03:10:38;2.80;;;1.67;;
13279;SDS011;6708;49.814;8.652;2023-07-20T03:13:10;1.07;;;1.07;;
13279;SDS011;6708;49.814;8.652;2023-07-20T03:15:39;1.40;;;1.30;;
13279;SDS011;6708;49.814;8.652;2023-07-20T03:18:08;1.70;;;1.60;;
13279;SDS011;6708;49.814;8.652;2023-07-20T03:20:36;1.10;;;1.03;;
13279;SDS011;6708;49.814;8.652;2023-07-20T03:23:04;1.60;;;1.47;;
13279;SDS011;6708;49.814;8.652;2023-07-20T03:25:33;1.43;;;1.40;;
13279;SDS011;6708;49.814;8.652;2023-07-20T03:28:02;1.40;;;1.40;;
13279;SDS011;6708;49.814;8.652;2023-07-20T03:30:33;1.43;;;1.33;;
13279;SDS011;6708;49.814;8.652;2023-07-20T03:33:02;1.27;;;1.20;;
13279;SDS011;6708;49.814;8.652;2023-07-20T03:35:31;1.43;;;1.33;;
13279;SDS011;6708;49.814;8.652;2023-07-20T03:37:59;1.60;;;1.50;;
13279;SDS011;6708;49.814;8.652;2023-07-20T03:40:27;1.97;;;1.40;;
13279;SDS011;6708;49.814;8.652;2023-07-20T03:42:56;1.70;;;1.60;;
13279;SDS011;6708;49.814;8.652;2023-07-20T03:45:26;2.07;;;1.23;;
13279;SDS011;6708;49.814;8.652;2023-07-20T03:47:57;1.60;;;1.50;;
13279;SDS011;6708;49.814;8.652;2023-07-20T03:50:25;1.47;;;1.37;;
13279;SDS011;6708;49.814;8.652;2023-07-20T03:52:54;2.03;;;1.50;;
13279;SDS011;6708;49.814;8.652;2023-07-20T03:55:23;1.83;;;1.60;;
13279;SDS011;6708;49.814;8.652;2023-07-20T03:57:51;1.47;;;1.37;;
13279;SDS011;6708;49.814;8.652;2023-07-20T04:00:20;1.20;;;1.20;;
13279;SDS011;6708;49.814;8.652;2023-07-20T04:02:49;1.90;;;1.60;;
13279;SDS011;6708;49.814;8.652;2023-07-20T04:05:20;1.33;;;1.33;;
13279;SDS011;6708;49.814;8.652;2023-07-20T04:07:48;1.67;;;1.57;;
13279;SDS011;6708;49.814;8.652;2023-07-20T04:10:17;1.57;;;1.47;;
13279;SDS011;6708;49.814;8.652;2023-07-20T04:12:45;1.73;;;1.63;;
13279;SDS011;6708;49.814;8.652;2023-07-20T04:15:14;1.37;;;1.27;;
13279;SDS011;6708;49.814;8.652;2023-07-20T04:17:43;1.33;;;1.33;;
13279;SDS011;6708;49.814;8.652;2023-07-20T04:20:12;2.83;;;1.47;;
13279;SDS011;6708;49.814;8.652;2023-07-20T04:22:45;1.77;;;1.40;;
13279;SDS011;6708;49.814;8.652;2023-07-20T04:25:15;1.60;;;1.50;;
13279;SDS011;6708;49.814;8.652;2023-07-20T04:27:43;1.47;;;1.37;;
13279;SDS011;6708;49.814;8.652;2023-07-20T04:30:12;1.40;;;1.30;;
13279;SDS011;6708;49.814;8.652;2023-07-20T04:32:42;1.33;;;1.33;;
13279;SDS011;6708;49.814;8.652;2023-07-20T04:35:16;1.30;;;1.20;;
13279;SDS011;6708;49.814;8.652;2023-07-20T04:37:50;1.53;;;1.33;;
13279;SDS011;6708;49.814;8.652;2023-07-20T04:40:20;1.30;;;1.20;;
13279;SDS011;6708;49.814;8.652;2023-07-20T04:42:50;1.13;;;1.13;;
13279;SDS011;6708;49.814;8.652;2023-07-20T04:45:18;1.40;;;1.30;;
13279;SDS011;6708;49.814;8.652;2023-07-20T04:47:48;0.93;;;0.90;;
13279;SDS011;6708;49.814;8.652;2023-07-20T04:50:18;1.77;;;1.20;;
13279;SDS011;6708;49.814;8.652;2023-07-20T04:52:46;4.77;;;1.30;;
13279;SDS011;6708;49.814;8.652;2023-07-20T04:55:20;1.60;;;1.20;;
13279;SDS011;6708;49.814;8.652;2023-07-20T04:57:49;0.90;;;0.90;;
13279;SDS011;6708;49.814;8.652;2023-07-20T05:00:21;1.30;;;1.30;;
13279;SDS011;6708;49.814;8.652;2023-07-20T05:02:50;1.50;;;1.40;;
13279;SDS011;6708;49.814;8.652;2023-07-20T05:05:18;1.43;;;1.43;;
13279;SDS011;6708;49.814;8.652;2023-07-20T05:07:47;1.40;;;1.30;;
13279;SDS011;6708;49.814;8.652;2023-07-20T05:10:26;1.27;;;1.10;;
13279;SDS011;6708;49.814;8.652;2023-07-20T05:12:55;1.40;;;1.30;;
13279;SDS011;6708;49.814;8.652;2023-07-20T05:15:23;2.77;;;1.10;;
13279;SDS011;6708;49.814;8.652;2023-07-20T05:17:53;1.10;;;1.10;;
13279;SDS011;6708;49.814;8.652;2023-07-20T05:20:23;1.47;;;1.40;;
13279;SDS011;6708;49.814;8.652;2023-07-20T05:22:53;1.10;;;1.00;;
13279;SDS011;6708;49.814;8.652;2023-07-20T05:25:21;1.10;;;1.10;;
13279;SDS011;6708;49.814;8.652;2023-07-20T05:27:53;1.67;;;1.20;;
13279;SDS011;6708;49.814;8.652;2023-07-20T05:30:21;1.53;;;1.30;;
13279;SDS011;6708;49.814;8.652;2023-07-20T05:32:49;1.93;;;1.53;;
13279;SDS011;6708;49.814;8.652;2023-07-20T05:35:19;1.27;;;1.23;;
13279;SDS011;6708;49.814;8.652;2023-07-20T05:37:48;1.30;;;1.30;;
13279;SDS011;6708;49.814;8.652;2023-07-20T05:40:16;3.37;;;1.97;;
13279;SDS011;6708;49.814;8.652;2023-07-20T05:42:46;2.00;;;1.80;;
13279;SDS011;6708;49.814;8.652;2023-07-20T05:45:19;1.30;;;1.30;;
13279;SDS011;6708;49.814;8.652;2023-07-20T05:47:48;1.70;;;1.60;;
13279;SDS011;6708;49.814;8.652;2023-07-20T05:50:16;2.87;;;1.53;;
13279;SDS011;6708;49.814;8.652;2023-07-20T05:52:45;1.50;;;1.40;;
13279;SDS011;6708;49.814;8.652;2023-07-20T05:55:13;1.20;;;1.20;;
13279;SDS011;6708;49.814;8.652;2023-07-20T05:57:42;1.57;;;1.47;;
13279;SDS011;6708;49.814;8.652;2023-07-20T06:00:10;1.47;;;1.37;;
13279;SDS011;6708;49.814;8.652;2023-07-20T06:02:43;1.77;;;1.60;;
13279;SDS011;6708;49.814;8.652;2023-07-20T06:05:13;3.47;;;1.47;;
13279;SDS011;6708;49.814;8.652;2023-07-20T06:07:41;1.47;;;1.37;;
13279;SDS011;6708;49.814;8.652;2023-07-20T06:10:10;2.17;;;1.50;;
13279;SDS011;6708;49.814;8.652;2023-07-20T06:12:38;2.37;;;1.60;;
13279;SDS011;6708;49.814;8.652;2023-07-20T06:15:23;3.03;;;1.93;;
13279;SDS011;6708;49.814;8.652;2023-07-20T06:17:55;1.40;;;1.30;;
13279;SDS011;6708;49.814;8.652;2023-07-20T06:20:24;1.90;;;1.10;;
13279;SDS011;6708;49.814;8.652;2023-07-20T06:22:52;1.70;;;1.60;;
13279;SDS011;6708;49.814;8.652;2023-07-20T06:25:21;1.10;;;1.10;;
13279;SDS011;6708;49.814;8.652;2023-07-20T06:27:49;2.17;;;1.40;;
13279;SDS011;6708;49.814;8.652;2023-07-20T06:30:19;1.93;;;1.50;;
13279;SDS011;6708;49.814;8.652;2023-07-20T06:32:47;1.43;;;1.37;;
13279;SDS011;6708;49.814;8.652;2023-07-20T06:35:18;1.80;;;1.70;;
13279;SDS011;6708;49.814;8.652;2023-07-20T06:37:47;1.40;;;1.30;;
13279;SDS011;6708;49.814;8.652;2023-07-20T06:40:15;1.80;;;1.60;;
13279;SDS011;6708;49.814;8.652;2023-07-20T06:42:43;1.70;;;1.60;;
13279;SDS011;6708;49.814;8.652;2023-07-20T06:45:12;1.63;;;1.50;;
13279;SDS011;6708;49.814;8.652;2023-07-20T06:47:41;1.47;;;1.37;;
13279;SDS011;6708;49.814;8.652;2023-07-20T06:50:10;3.93;;;1.40;;
13279;SDS011;6708;49.814;8.652;2023-07-20T06:52:42;2.00;;;1.60;;
13279;SDS011;6708;49.814;8.652;2023-07-20T06:55:11;1.90;;;1.80;;
13279;SDS011;6708;49.814;8.652;2023-07-20T06:57:40;1.73;;;1.63;;
13279;SDS011;6708;49.814;8.652;2023-07-20T07:00:09;1.40;;;1.33;;
13279;SDS011;6708;49.814;8.652;2023-07-20T07:02:38;1.80;;;1.70;;
13279;SDS011;6708;49.814;8.652;2023-07-20T07:05:06;2.53;;;1.60;;
13279;SDS011;6708;49.814;8.652;2023-07-20T07:07:35;2.47;;;1.83;;
13279;SDS011;6708;49.814;8.652;2023-07-20T07:10:07;2.90;;;1.30;;
13279;SDS011;6708;49.814;8.652;2023-07-20T07:12:35;2.37;;;1.63;;
13279;SDS011;6708;49.814;8.652;2023-07-20T07:15:04;1.73;;;1.30;;
13279;SDS011;6708;49.814;8.652;2023-07-20T07:17:35;3.70;;;1.40;;
13279;SDS011;6708;49.814;8.652;2023-07-20T07:20:05;2.67;;;1.60;;
13279;SDS011;6708;49.814;8.652;2023-07-20T07:22:34;2.27;;;1.70;;
13279;SDS011;6708;49.814;8.652;2023-07-20T07:25:03;1.50;;;1.40;;
13279;SDS011;6708;49.814;8.652;2023-07-20T07:27:35;1.70;;;1.53;;
13279;SDS011;6708;49.814;8.652;2023-07-20T07:30:04;1.67;;;1.57;;
13279;SDS011;6708;49.814;8.652;2023-07-20T07:32:33;2.23;;;1.20;;
13279;SDS011;6708;49.814;8.652;2023-07-20T07:35:02;1.83;;;1.73;;
13279;SDS011;6708;49.814;8.652;2023-07-20T07:37:31;1.70;;;1.60;;
13279;SDS011;6708;49.814;8.652;2023-07-20T07:39:59;6.33;;;1.43;;
13279;SDS011;6708;49.814;8.652;2023-07-20T07:42:28;1.50;;;1.40;;
13279;SDS011;6708;49.814;8.652;2023-07-20T07:44:59;1.40;;;1.30;;
13279;SDS011;6708;49.814;8.652;2023-07-20T07:47:28;1.17;;;1.17;;
13279;SDS011;6708;49.814;8.652;2023-07-20T07:49:56;1.40;;;1.30;;
13279;SDS011;6708;49.814;8.652;2023-07-20T07:52:25;2.93;;;1.50;;
13279;SDS011;6708;49.814;8.652;2023-07-20T07:54:53;2.53;;;1.70;;
13279;SDS011;6708;49.814;8.652;2023-07-20T07:57:22;2.07;;;1.50;;
13279;SDS011;6708;49.814;8.652;2023-07-20T07:59:50;1.70;;;1.60;;
13279;SDS011;6708;49.814;8.652;2023-07-20T08:02:21;2.60;;;1.37;;
13279;SDS011;6708;49.814;8.652;2023-07-20T08:04:49;1.43;;;1.40;;
13279;SDS011;6708;49.814;8.652;2023-07-20T08:07:18;1.20;;;1.10;;
13279;SDS011;6708;49.814;8.652;2023-07-20T08:09:46;2.77;;;1.20;;
13279;SDS011;6708;49.814;8.652;2023-07-20T08:12:15;1.43;;;1.40;;
13279;SDS011;6708;49.814;8.652;2023-07-20T08:14:45;1.50;;;1.33;;
13279;SDS011;6708;49.814;8.652;2023-07-20T08:17:13;1.52;;;1.48;;
13279;SDS011;6708;49.814;8.652;2023-07-20T08:19:46;1.30;;;1.20;;
13279;SDS011;6708;49.814;8.652;2023-07-20T08:22:14;2.20;;;1.40;;
13279;SDS011;6708;49.814;8.652;2023-07-20T08:24:43;2.53;;;1.60;;
13279;SDS011;6708;49.814;8.652;2023-07-20T08:27:12;1.50;;;1.40;;
13279;SDS011;6708;49.814;8.652;2023-07-20T08:29:40;1.55;;;1.45;;
13279;SDS011;6708;49.814;8.652;2023-07-20T08:32:09;2.85;;;1.40;;
13279;SDS011;6708;49.814;8.652;2023-07-20T08:34:38;1.50;;;1.38;;
13279;SDS011;6708;49.814;8.652;2023-07-20T08:37:09;1.40;;;1.27;;
13279;SDS011;6708;49.814;8.652;2023-07-20T08:39:38;1.10;;;1.10;;
13279;SDS011;6708;49.814;8.652;2023-07-20T08:42:06;1.45;;;1.30;;
13279;SDS011;6708;49.814;8.652;2023-07-20T08:44:35;3.03;;;1.45;;
13279;SDS011;6708;49.814;8.652;2023-07-20T08:47:05;1.52;;;1.00;;
13279;SDS011;6708;49.814;8.652;2023-07-20T08:49:34;1.08;;;1.08;;
13279;SDS011;6708;49.814;8.652;2023-07-20T08:52:03;1.08;;;1.08;;
13279;SDS011;6708;49.814;8.652;2023-07-20T08:54:35;1.33;;;1.15;;
13279;SDS011;6708;49.814;8.652;2023-07-20T08:57:04;1.50;;;1.40;;
13279;SDS011;6708;49.814;8.652;2023-07-20T08:59:33;1.45;;;1.00;;
13279;SDS011;6708;49.814;8.652;2023-07-20T09:02:02;1.38;;;1.20;;
13279;SDS011;6708;49.814;8.652;2023-07-20T09:04:32;1.17;;;1.10;;
13279;SDS011;6708;49.814;8.652;2023-07-20T09:07:01;1.00;;;0.90;;
13279;SDS011;6708;49.814;8.652;2023-07-20T09:09:30;1.05;;;0.80;;
13279;SDS011;6708;49.814;8.652;2023-07-20T09:12:01;1.23;;;1.23;;
13279;SDS011;6708;49.814;8.652;2023-07-20T09:14:30;1.45;;;1.08;;
13279;SDS011;6708;49.814;8.652;2023-07-20T09:16:58;1.63;;;1.02;;
13279;SDS011;6708;49.814;8.652;2023-07-20T09:19:27;1.13;;;1.02;;
13279;SDS011;6708;49.814;8.652;2023-07-20T09:21:55;1.23;;;1.00;;
13279;SDS011;6708;49.814;8.652;2023-07-20T09:24:23;1.27;;;1.00;;
13279;SDS011;6708;49.814;8.652;2023-07-20T09:26:52;0.88;;;0.88;;
13279;SDS011;6708;49.814;8.652;2023-07-20T09:29:23;1.48;;;0.95;;
13279;SDS011;6708;49.814;8.652;2023-07-20T09:31:58;2.97;;;1.00;;
13279;SDS011;6708;49.814;8.652;2023-07-20T09:34:28;1.42;;;1.33;;
13279;SDS011;6708;49.814;8.652;2023-07-20T09:36:57;1.42;;;1.33;;
13279;SDS011;6708;49.814;8.652;2023-07-20T09:39:25;1.02;;;0.95;;
13279;SDS011;6708;49.814;8.652;2023-07-20T09:41:54;0.98;;;0.98;;
13279;SDS011;6708;49.814;8.652;2023-07-20T09:44:27;3.13;;;0.90;;
13279;SDS011;6708;49.814;8.652;2023-07-20T09:46:55;0.98;;;0.95;;
13279;SDS011;6708;49.814;8.652;2023-07-20T09:49:24;2.25;;;1.25;;
13279;SDS011;6708;49.814;8.652;2023-07-20T09:51:52;0.80;;;0.80;;
13279;SDS011;6708;49.814;8.652;2023-07-20T09:54:21;1.80;;;1.25;;
13279;SDS011;6708;49.814;8.652;2023-07-20T09:56:50;1.45;;;1.15;;
13279;SDS011;6708;49.814;8.652;2023-07-20T09:59:19;1.50;;;1.00;;
13279;SDS011;6708;49.814;8.652;2023-07-20T10:01:50;1.27;;;1.17;;
13279;SDS011;6708;49.814;8.652;2023-07-20T10:04:21;1.13;;;1.10;;
13279;SDS011;6708;49.814;8.652;2023-07-20T10:06:49;1.58;;;1.25;;
13279;SDS011;6708;49.814;8.652;2023-07-20T10:09:20;1.13;;;1.00;;
13279;SDS011;6708;49.814;8.652;2023-07-20T10:11:50;2.00;;;0.77;;
13279;SDS011;6708;49.814;8.652;2023-07-20T10:14:20;3.85;;;1.33;;
13279;SDS011;6708;49.814;8.652;2023-07-20T10:16:54;1.83;;;1.10;;
13279;SDS011;6708;49.814;8.652;2023-07-20T10:19:24;6.10;;;1.15;;
13279;SDS011;6708;49.814;8.652;2023-07-20T10:21:57;1.52;;;1.33;;
13279;SDS011;6708;49.814;8.652;2023-07-20T10:24:29;0.80;;;0.80;;
13279;SDS011;6708;49.814;8.652;2023-07-20T10:26:57;1.75;;;1.00;;
13279;SDS011;6708;49.814;8.652;2023-07-20T10:29:26;0.70;;;0.70;;
13279;SDS011;6708;49.814;8.652;2023-07-20T10:31:57;2.63;;;1.05;;
13279;SDS011;6708;49.814;8.652;2023-07-20T10:34:26;1.02;;;1.00;;
13279;SDS011;6708;49.814;8.652;2023-07-20T10:36:54;1.00;;;1.00;;
13279;SDS011;6708;49.814;8.652;2023-07-20T10:39:23;1.45;;;0.70;;
13279;SDS011;6708;49.814;8.652;2023-07-20T10:41:59;1.30;;;1.05;;
13279;SDS011;6708;49.814;8.652;2023-07-20T10:44:28;0.80;;;0.80;;
13279;SDS011;6708;49.814;8.652;2023-07-20T10:47:03;1.38;;;0.85;;
13279;SDS011;6708;49.814;8.652;2023-07-20T10:49:57;0.47;;;0.47;;
13279;SDS011;6708;49.814;8.652;2023-07-20T10:52:26;0.85;;;0.85;;
13279;SDS011;6708;49.814;8.652;2023-07-20T10:54:54;1.15;;;1.02;;
13279;SDS011;6708;49.814;8.652;2023-07-20T10:57:23;3.30;;;0.60;;
13279;SDS011;6708;49.814;8.652;2023-07-20T10:59:53;1.20;;;1.10;;
13279;SDS011;6708;49.814;8.652;2023-07-20T11:02:45;1.00;;;1.00;;
13279;SDS011;6708;49.814;8.652;2023-07-20T11:08:05;1.42;;;0.73;;
13279;SDS011;6708;49.814;8.652;2023-07-20T11:10:34;0.70;;;0.70;;
13279;SDS011;6708;49.814;8.652;2023-07-20T11:13:18;1.83;;;0.75;;
13279;SDS011;6708;49.814;8.652;2023-07-20T11:15:52;0.75;;;0.75;;
13279;SDS011;6708;49.814;8.652;2023-07-20T11:18:32;1.00;;;1.00;;
13279;SDS011;6708;49.814;8.652;2023-07-20T11:21:06;0.90;;;0.70;;
13279;SDS011;6708;49.814;8.652;2023-07-20T11:23:35;0.80;;;0.80;;
13279;SDS011;6708;49.814;8.652;2023-07-20T11:26:06;3.63;;;1.20;;
13279;SDS011;6708;49.814;8.652;2023-07-20T11:28:35;1.05;;;0.70;;
13279;SDS011;6708;49.814;8.652;2023-07-20T11:31:03;1.02;;;0.90;;
13279;SDS011;6708;49.814;8.652;2023-07-20T11:33:34;0.55;;;0.55;;
13279;SDS011;6708;49.814;8.652;2023-07-20T11:36:02;0.75;;;0.60;;
13279;SDS011;6708;49.814;8.652;2023-07-20T11:38:31;0.60;;;0.60;;
13279;SDS011;6708;49.814;8.652;2023-07-20T11:41:00;0.90;;;0.90;;
13279;SDS011;6708;49.814;8.652;2023-07-20T11:43:28;1.55;;;0.70;;
13279;SDS011;6708;49.814;8.652;2023-07-20T11:45:56;1.50;;;0.88;;
13279;SDS011;6708;49.814;8.652;2023-07-20T11:48:25;1.23;;;1.13;;
13279;SDS011;6708;49.814;8.652;2023-07-20T11:50:56;0.80;;;0.75;;
13279;SDS011;6708;49.814;8.652;2023-07-20T11:53:24;1.10;;;0.70;;
13279;SDS011;6708;49.814;8.652;2023-07-20T11:55:53;1.45;;;0.80;;
13279;SDS011;6708;49.814;8.652;2023-07-20T11:58:21;0.93;;;0.70;;
13279;SDS011;6708;49.814;8.652;2023-07-20T12:00:50;0.60;;;0.60;;
13279;SDS011;6708;49.814;8.652;2023-07-20T12:03:18;0.65;;;0.65;;
13279;SDS011;6708;49.814;8.652;2023-07-20T12:05:46;0.93;;;0.93;;
13279;SDS011;6708;49.814;8.652;2023-07-20T12:08:18;0.57;;;0.57;;
13279;SDS011;6708;49.814;8.652;2023-07-20T12:10:48;0.88;;;0.88;;
13279;SDS011;6708;49.814;8.652;2023-07-20T12:13:16;2.40;;;0.90;;
13279;SDS011;6708;49.814;8.652;2023-07-20T12:15:44;0.77;;;0.77;;
13279;SDS011;6708;49.814;8.652;2023-07-20T12:18:13;0.80;;;0.80;;
13279;SDS011;6708;49.814;8.652;2023-07-20T12:20:41;1.73;;;0.90;;
13279;SDS011;6708;49.814;8.652;2023-07-20T12:23:11;0.82;;;0.82;;
13279;SDS011;6708;49.814;8.652;2023-07-20T12:25:45;1.33;;;1.10;;
13279;SDS011;6708;49.814;8.652;2023-07-20T12:28:14;0.98;;;0.98;;
13279;SDS011;6708;49.814;8.652;2023-07-20T12:30:44;0.88;;;0.88;;
13279;SDS011;6708;49.814;8.652;2023-07-20T12:33:21;2.17;;;0.98;;
13279;SDS011;6708;49.814;8.652;2023-07-20T12:35:49;4.93;;;1.05;;
13279;SDS011;6708;49.814;8.652;2023-07-20T12:38:21;0.90;;;0.90;;
13279;SDS011;6708;49.814;8.652;2023-07-20T12:40:52;0.70;;;0.70;;
13279;SDS011;6708;49.814;8.652;2023-07-20T12:43:20;0.95;;;0.95;;
13279;SDS011;6708;49.814;8.652;2023-07-20T12:45:49;0.73;;;0.73;;
13279;SDS011;6708;49.814;8.652;2023-07-20T12:48:17;1.10;;;1.05;;
13279;SDS011;6708;49.814;8.652;2023-07-20T12:50:45;1.52;;;1.10;;
13279;SDS011;6708;49.814;8.652;2023-07-20T12:53:14;0.90;;;0.90;;
13279;SDS011;6708;49.814;8.652;2023-07-20T12:55:42;1.15;;;1.02;;
13279;SDS011;6708;49.814;8.652;2023-07-20T12:58:13;0.95;;;0.95;;
13279;SDS011;6708;49.814;8.652;2023-07-20T13:00:42;0.95;;;0.93;;
13279;SDS011;6708;49.814;8.652;2023-07-20T13:03:10;1.33;;;0.80;;
13279;SDS011;6708;49.814;8.652;2023-07-20T13:05:38;0.75;;;0.75;;
13279;SDS011;6708;49.814;8.652;2023-07-20T13:08:07;0.80;;;0.80;;
13279;SDS011;6708;49.814;8.652;2023-07-20T13:10:36;1.10;;;1.08;;
13279;SDS011;6708;49.814;8.652;2023-07-20T13:13:04;1.02;;;0.95;;
13279;SDS011;6708;49.814;8.652;2023-07-20T13:15:40;0.73;;;0.73;;
13279;SDS011;6708;49.814;8.652;2023-07-20T13:18:10;1.88;;;1.42;;
13279;SDS011;6708;49.814;8.652;2023-07-20T13:20:39;0.77;;;0.77;;
13279;SDS011;6708;49.814;8.652;2023-07-20T13:23:07;1.92;;;0.93;;
13279;SDS011;6708;49.814;8.652;2023-07-20T13:25:35;0.82;;;0.82;;
13279;SDS011;6708;49.814;8.652;2023-07-20T13:28:04;1.70;;;1.30;;
13279;SDS011;6708;49.814;8.652;2023-07-20T13:30:36;0.90;;;0.90;;
13279;SDS011;6708;49.814;8.652;2023-07-20T13:33:04;0.82;;;0.80;;
13279;SDS011;6708;49.814;8.652;2023-07-20T13:35:32;1.05;;;1.05;;
13279;SDS011;6708;49.814;8.652;2023-07-20T13:38:01;1.17;;;1.08;;
13279;SDS011;6708;49.814;8.652;2023-07-20T13:40:29;1.02;;;0.85;;
13279;SDS011;6708;49.814;8.652;2023-07-20T13:42:57;1.65;;;0.93;;
13279;SDS011;6708;49.814;8.652;2023-07-20T13:45:26;2.10;;;1.00;;
13279;SDS011;6708;49.814;8.652;2023-07-20T13:47:57;0.50;;;0.50;;
13279;SDS011;6708;49.814;8.652;2023-07-20T13:50:25;0.80;;;0.73;;
13279;SDS011;6708;49.814;8.652;2023-07-20T13:52:54;1.15;;;0.90;;
13279;SDS011;6708;49.814;8.652;2023-07-20T13:55:22;2.67;;;0.90;;
13279;SDS011;6708;49.814;8.652;2023-07-20T13:57:50;0.75;;;0.75;;
13279;SDS011;6708;49.814;8.652;2023-07-20T14:00:19;1.10;;;0.77;;
13279;SDS011;6708;49.814;8.652;2023-07-20T14:02:47;1.63;;;0.90;;
13279;SDS011;6708;49.814;8.652;2023-07-20T14:05:18;0.98;;;0.98;;
13279;SDS011;6708;49.814;8.652;2023-07-20T14:07:47;8.05;;;1.23;;
13279;SDS011;6708;49.814;8.652;2023-07-20T14:10:15;0.88;;;0.82;;
13279;SDS011;6708;49.814;8.652;2023-07-20T14:12:43;1.05;;;0.75;;
13279;SDS011;6708;49.814;8.652;2023-07-20T14:15:12;0.98;;;0.98;;
13279;SDS011;6708;49.814;8.652;2023-07-20T14:17:41;2.80;;;0.90;;
13279;SDS011;6708;49.814;8.652;2023-07-20T14:20:10;0.98;;;0.70;;
13279;SDS011;6708;49.814;8.652;2023-07-20T14:22:41;2.05;;;1.13;;
13279;SDS011;6708;49.814;8.652;2023-07-20T14:25:10;1.33;;;0.77;;
13279;SDS011;6708;49.814;8.652;2023-07-20T14:27:38;2.83;;;0.80;;
13279;SDS011;6708;49.814;8.652;2023-07-20T14:30:07;2.80;;;0.77;;
13279;SDS011;6708;49.814;8.652;2023-07-20T14:32:36;0.70;;;0.70;;
13279;SDS011;6708;49.814;8.652;2023-07-20T14:35:05;1.55;;;0.70;;
13279;SDS011;6708;49.814;8.652;2023-07-20T14:37:34;2.85;;;0.95;;
13279;SDS011;6708;49.814;8.652;2023-07-20T14:40:06;2.45;;;1.00;;
13279;SDS011;6708;49.814;8.652;2023-07-20T14:42:35;1.23;;;1.10;;
13279;SDS011;6708;49.814;8.652;2023-07-20T14:45:04;0.80;;;0.80;;
13279;SDS011;6708;49.814;8.652;2023-07-20T14:47:33;1.13;;;0.73;;
13279;SDS011;6708;49.814;8.652;2023-07-20T14:50:02;1.50;;;1.05;;
13279;SDS011;6708;49.814;8.652;2023-07-20T14:52:30;1.15;;;1.02;;
13279;SDS011;6708;49.814;8.652;2023-07-20T14:54:59;0.75;;;0.75;;
13279;SDS011;6708;49.814;8.652;2023-07-20T14:57:30;0.82;;;0.82;;
13279;SDS011;6708;49.814;8.652;2023-07-20T14:59:58;3.65;;;1.02;;
13279;SDS011;6708;49.814;8.652;2023-07-20T15:02:26;1.63;;;1.13;;
13279;SDS011;6708;49.814;8.652;2023-07-20T15:04:55;1.27;;;0.88;;
13279;SDS011;6708;49.814;8.652;2023-07-20T15:07:23;0.88;;;0.88;;
13279;SDS011;6708;49.814;8.652;2023-07-20T15:09:51;0.68;;;0.68;;
13279;SDS011;6708;49.814;8.652;2023-07-20T15:12:20;0.98;;;0.93;;
13279;SDS011;6708;49.814;8.652;2023-07-20T15:15:02;1.25;;;0.73;;
13279;SDS011;6708;49.814;8.652;2023-07-20T15:17:32;1.33;;;1.10;;